sensor_id;sensor_type;location;lat;lon;timestamp;P1;durP1;ratioP1;P2;durP2;ratioP2
79139;SDS011;68546;59.142;37.948;2023-05-23T00:01:41;17.95;;;7.10;;
79139;SDS011;68546;59.142;37.948;2023-05-23T00:04:10;13.63;;;6.93;;
79139;SDS011;68546;59.142;37.948;2023-05-23T00:06:42;16.20;;;7.43;;
79139;SDS011;68546;59.142;37.948;2023-05-23T00:09:12;14.52;;;7.45;;
79139;SDS011;68546;59.142;37.948;2023-05-23T00:11:39;14.35;;;6.43;;
79139;SDS011;68546;59.142;37.948;2023-05-23T00:14:13;16.75;;;7.47;;
79139;SDS011;68546;59.142;37.948;2023-05-23T00:16:40;11.10;;;5.27;;
79139;SDS011;68546;59.142;37.948;2023-05-23T00:19:12;13.02;;;6.13;;
79139;SDS011;68546;59.142;37.948;2023-05-23T00:21:41;15.15;;;6.65;;
79139;SDS011;68546;59.142;37.948;2023-05-23T00:24:08;11.23;;;6.20;;
79139;SDS011;68546;59.142;37.948;2023-05-23T00:26:35;11.27;;;5.93;;
79139;SDS011;68546;59.142;37.948;2023-05-23T00:29:02;10.23;;;5.13;;
79139;SDS011;68546;59.142;37.948;2023-05-23T00:31:28;14.45;;;5.90;;
79139;SDS011;68546;59.142;37.948;2023-05-23T00:33:54;11.80;;;5.78;;
79139;SDS011;68546;59.142;37.948;2023-05-23T00:36:21;11.65;;;5.70;;
79139;SDS011;68546;59.142;37.948;2023-05-23T00:38:48;13.25;;;5.63;;
79139;SDS011;68546;59.142;37.948;2023-05-23T00:41:15;8.50;;;4.83;;
79139;SDS011;68546;59.142;37.948;2023-05-23T00:43:43;14.35;;;5.80;;
79139;SDS011;68546;59.142;37.948;2023-05-23T00:46:09;12.27;;;5.63;;
79139;SDS011;68546;59.142;37.948;2023-05-23T00:48:36;13.00;;;6.28;;
79139;SDS011;68546;59.142;37.948;2023-05-23T00:51:05;12.05;;;6.13;;
79139;SDS011;68546;59.142;37.948;2023-05-23T00:53:32;14.73;;;6.07;;
79139;SDS011;68546;59.142;37.948;2023-05-23T00:55:59;10.68;;;5.63;;
79139;SDS011;68546;59.142;37.948;2023-05-23T00:58:27;11.00;;;5.32;;
79139;SDS011;68546;59.142;37.948;2023-05-23T01:00:53;12.65;;;5.40;;
79139;SDS011;68546;59.142;37.948;2023-05-23T01:03:20;9.20;;;4.70;;
79139;SDS011;68546;59.142;37.948;2023-05-23T01:05:48;10.77;;;4.97;;
79139;SDS011;68546;59.142;37.948;2023-05-23T01:08:15;10.82;;;5.30;;
79139;SDS011;68546;59.142;37.948;2023-05-23T01:10:41;11.02;;;5.63;;
79139;SDS011;68546;59.142;37.948;2023-05-23T01:13:33;10.93;;;5.50;;
79139;SDS011;68546;59.142;37.948;2023-05-23T01:16:17;11.27;;;6.30;;
79139;SDS011;68546;59.142;37.948;2023-05-23T01:18:57;12.80;;;6.67;;
79139;SDS011;68546;59.142;37.948;2023-05-23T01:21:30;10.68;;;5.82;;
79139;SDS011;68546;59.142;37.948;2023-05-23T01:24:13;12.25;;;6.05;;
79139;SDS011;68546;59.142;37.948;2023-05-23T01:27:08;11.18;;;5.80;;
79139;SDS011;68546;59.142;37.948;2023-05-23T01:29:59;13.02;;;6.18;;
79139;SDS011;68546;59.142;37.948;2023-05-23T01:32:29;12.33;;;6.47;;
79139;SDS011;68546;59.142;37.948;2023-05-23T01:34:57;10.70;;;5.88;;
79139;SDS011;68546;59.142;37.948;2023-05-23T01:37:25;11.63;;;5.25;;
79139;SDS011;68546;59.142;37.948;2023-05-23T01:39:52;10.38;;;5.30;;
79139;SDS011;68546;59.142;37.948;2023-05-23T01:42:18;11.45;;;5.18;;
79139;SDS011;68546;59.142;37.948;2023-05-23T01:44:44;10.27;;;5.10;;
79139;SDS011;68546;59.142;37.948;2023-05-23T01:47:12;9.90;;;5.40;;
79139;SDS011;68546;59.142;37.948;2023-05-23T01:49:40;11.95;;;5.70;;
79139;SDS011;68546;59.142;37.948;2023-05-23T01:52:09;12.60;;;5.55;;
79139;SDS011;68546;59.142;37.948;2023-05-23T01:54:38;10.77;;;5.35;;
79139;SDS011;68546;59.142;37.948;2023-05-23T01:57:07;12.03;;;5.73;;
79139;SDS011;68546;59.142;37.948;2023-05-23T01:59:34;12.82;;;5.63;;
79139;SDS011;68546;59.142;37.948;2023-05-23T02:02:00;10.23;;;5.30;;
79139;SDS011;68546;59.142;37.948;2023-05-23T02:04:27;10.05;;;5.07;;
79139;SDS011;68546;59.142;37.948;2023-05-23T02:06:53;10.20;;;5.53;;
79139;SDS011;68546;59.142;37.948;2023-05-23T02:09:20;10.77;;;5.37;;
79139;SDS011;68546;59.142;37.948;2023-05-23T02:11:46;10.90;;;5.35;;
79139;SDS011;68546;59.142;37.948;2023-05-23T02:14:13;9.65;;;4.88;;
79139;SDS011;68546;59.142;37.948;2023-05-23T02:16:39;9.93;;;5.80;;
79139;SDS011;68546;59.142;37.948;2023-05-23T02:19:06;9.05;;;5.28;;
79139;SDS011;68546;59.142;37.948;2023-05-23T02:21:32;13.83;;;5.90;;
79139;SDS011;68546;59.142;37.948;2023-05-23T02:23:59;10.93;;;5.85;;
79139;SDS011;68546;59.142;37.948;2023-05-23T02:26:25;10.40;;;5.95;;
79139;SDS011;68546;59.142;37.948;2023-05-23T02:28:52;10.65;;;5.82;;
79139;SDS011;68546;59.142;37.948;2023-05-23T02:31:18;10.13;;;5.80;;
79139;SDS011;68546;59.142;37.948;2023-05-23T02:33:45;11.27;;;5.70;;
79139;SDS011;68546;59.142;37.948;2023-05-23T02:36:12;9.70;;;5.75;;
79139;SDS011;68546;59.142;37.948;2023-05-23T02:38:38;9.95;;;5.72;;
79139;SDS011;68546;59.142;37.948;2023-05-23T02:41:05;11.70;;;5.65;;
79139;SDS011;68546;59.142;37.948;2023-05-23T02:43:32;11.73;;;6.05;;
79139;SDS011;68546;59.142;37.948;2023-05-23T02:45:59;12.43;;;5.40;;
79139;SDS011;68546;59.142;37.948;2023-05-23T02:48:25;9.85;;;5.28;;
79139;SDS011;68546;59.142;37.948;2023-05-23T02:50:52;12.23;;;6.38;;
79139;SDS011;68546;59.142;37.948;2023-05-23T02:53:18;11.95;;;5.97;;
79139;SDS011;68546;59.142;37.948;2023-05-23T02:55:45;11.27;;;5.72;;
79139;SDS011;68546;59.142;37.948;2023-05-23T02:58:11;10.77;;;5.90;;
79139;SDS011;68546;59.142;37.948;2023-05-23T03:00:38;9.98;;;5.88;;
79139;SDS011;68546;59.142;37.948;2023-05-23T03:03:04;11.90;;;5.82;;
79139;SDS011;68546;59.142;37.948;2023-05-23T03:05:31;11.02;;;5.93;;
79139;SDS011;68546;59.142;37.948;2023-05-23T03:07:57;10.57;;;5.85;;
79139;SDS011;68546;59.142;37.948;2023-05-23T03:10:25;11.63;;;6.40;;
79139;SDS011;68546;59.142;37.948;2023-05-23T03:12:51;12.18;;;6.47;;
79139;SDS011;68546;59.142;37.948;2023-05-23T03:15:18;12.52;;;6.18;;
79139;SDS011;68546;59.142;37.948;2023-05-23T03:17:45;11.70;;;6.05;;
79139;SDS011;68546;59.142;37.948;2023-05-23T03:20:14;10.85;;;6.07;;
79139;SDS011;68546;59.142;37.948;2023-05-23T03:22:41;11.90;;;5.90;;
79139;SDS011;68546;59.142;37.948;2023-05-23T03:25:10;11.23;;;6.07;;
79139;SDS011;68546;59.142;37.948;2023-05-23T03:27:36;10.70;;;5.80;;
79139;SDS011;68546;59.142;37.948;2023-05-23T03:30:03;13.13;;;6.50;;
79139;SDS011;68546;59.142;37.948;2023-05-23T03:32:31;12.73;;;6.75;;
79139;SDS011;68546;59.142;37.948;2023-05-23T03:34:57;12.57;;;6.73;;
79139;SDS011;68546;59.142;37.948;2023-05-23T03:37:23;11.73;;;6.72;;
79139;SDS011;68546;59.142;37.948;2023-05-23T03:39:50;12.52;;;6.82;;
79139;SDS011;68546;59.142;37.948;2023-05-23T03:42:16;12.52;;;6.95;;
79139;SDS011;68546;59.142;37.948;2023-05-23T03:44:44;13.15;;;6.68;;
79139;SDS011;68546;59.142;37.948;2023-05-23T03:47:11;10.60;;;6.50;;
79139;SDS011;68546;59.142;37.948;2023-05-23T03:49:40;11.60;;;6.85;;
79139;SDS011;68546;59.142;37.948;2023-05-23T03:52:07;10.75;;;6.43;;
79139;SDS011;68546;59.142;37.948;2023-05-23T03:54:36;12.30;;;6.47;;
79139;SDS011;68546;59.142;37.948;2023-05-23T03:57:02;11.23;;;6.47;;
79139;SDS011;68546;59.142;37.948;2023-05-23T03:59:29;13.67;;;7.30;;
79139;SDS011;68546;59.142;37.948;2023-05-23T04:01:57;11.80;;;6.63;;
79139;SDS011;68546;59.142;37.948;2023-05-23T04:04:24;10.27;;;6.53;;
79139;SDS011;68546;59.142;37.948;2023-05-23T04:06:51;10.45;;;5.70;;
79139;SDS011;68546;59.142;37.948;2023-05-23T04:09:18;10.57;;;6.38;;
79139;SDS011;68546;59.142;37.948;2023-05-23T04:11:47;11.70;;;6.43;;
79139;SDS011;68546;59.142;37.948;2023-05-23T04:14:13;12.05;;;6.43;;
79139;SDS011;68546;59.142;37.948;2023-05-23T04:16:41;11.70;;;6.45;;
79139;SDS011;68546;59.142;37.948;2023-05-23T04:19:10;14.85;;;6.30;;
79139;SDS011;68546;59.142;37.948;2023-05-23T04:21:37;11.80;;;6.95;;
79139;SDS011;68546;59.142;37.948;2023-05-23T04:24:07;12.33;;;6.67;;
79139;SDS011;68546;59.142;37.948;2023-05-23T04:26:34;11.82;;;6.20;;
79139;SDS011;68546;59.142;37.948;2023-05-23T04:29:02;13.57;;;5.88;;
79139;SDS011;68546;59.142;37.948;2023-05-23T04:31:31;10.32;;;5.43;;
79139;SDS011;68546;59.142;37.948;2023-05-23T04:33:59;12.75;;;6.10;;
79139;SDS011;68546;59.142;37.948;2023-05-23T04:36:27;9.30;;;5.23;;
79139;SDS011;68546;59.142;37.948;2023-05-23T04:38:54;9.27;;;4.90;;
79139;SDS011;68546;59.142;37.948;2023-05-23T04:41:21;11.73;;;4.95;;
79139;SDS011;68546;59.142;37.948;2023-05-23T04:44:17;10.05;;;4.85;;
79139;SDS011;68546;59.142;37.948;2023-05-23T04:46:55;10.02;;;4.57;;
79139;SDS011;68546;59.142;37.948;2023-05-23T04:49:27;7.90;;;4.10;;
79139;SDS011;68546;59.142;37.948;2023-05-23T04:51:54;9.68;;;4.32;;
79139;SDS011;68546;59.142;37.948;2023-05-23T04:54:26;11.35;;;3.75;;
79139;SDS011;68546;59.142;37.948;2023-05-23T04:56:53;9.18;;;3.97;;
79139;SDS011;68546;59.142;37.948;2023-05-23T04:59:20;9.35;;;4.22;;
79139;SDS011;68546;59.142;37.948;2023-05-23T05:01:47;6.73;;;3.63;;
79139;SDS011;68546;59.142;37.948;2023-05-23T05:04:13;7.50;;;3.40;;
79139;SDS011;68546;59.142;37.948;2023-05-23T05:06:41;9.10;;;3.70;;
79139;SDS011;68546;59.142;37.948;2023-05-23T05:09:09;6.82;;;3.10;;
79139;SDS011;68546;59.142;37.948;2023-05-23T05:11:36;7.32;;;3.25;;
79139;SDS011;68546;59.142;37.948;2023-05-23T05:14:02;10.23;;;3.53;;
79139;SDS011;68546;59.142;37.948;2023-05-23T05:16:29;9.73;;;3.20;;
79139;SDS011;68546;59.142;37.948;2023-05-23T05:18:57;8.45;;;4.07;;
79139;SDS011;68546;59.142;37.948;2023-05-23T05:21:23;9.90;;;3.05;;
79139;SDS011;68546;59.142;37.948;2023-05-23T05:23:50;6.78;;;3.30;;
79139;SDS011;68546;59.142;37.948;2023-05-23T05:26:17;6.37;;;3.37;;
79139;SDS011;68546;59.142;37.948;2023-05-23T05:28:44;8.68;;;3.83;;
79139;SDS011;68546;59.142;37.948;2023-05-23T05:31:10;8.43;;;4.68;;
79139;SDS011;68546;59.142;37.948;2023-05-23T05:33:40;8.90;;;3.88;;
79139;SDS011;68546;59.142;37.948;2023-05-23T05:36:13;10.52;;;3.45;;
79139;SDS011;68546;59.142;37.948;2023-05-23T05:38:42;9.73;;;3.40;;
79139;SDS011;68546;59.142;37.948;2023-05-23T05:41:10;6.50;;;3.15;;
79139;SDS011;68546;59.142;37.948;2023-05-23T05:43:45;7.53;;;3.10;;
79139;SDS011;68546;59.142;37.948;2023-05-23T05:46:13;7.25;;;3.97;;
79139;SDS011;68546;59.142;37.948;2023-05-23T05:48:40;6.05;;;3.20;;
79139;SDS011;68546;59.142;37.948;2023-05-23T05:51:10;8.87;;;3.03;;
79139;SDS011;68546;59.142;37.948;2023-05-23T05:53:38;6.88;;;2.70;;
79139;SDS011;68546;59.142;37.948;2023-05-23T05:56:05;8.20;;;2.92;;
79139;SDS011;68546;59.142;37.948;2023-05-23T05:58:34;8.20;;;3.30;;
79139;SDS011;68546;59.142;37.948;2023-05-23T06:01:05;8.02;;;3.50;;
79139;SDS011;68546;59.142;37.948;2023-05-23T06:03:32;9.20;;;3.37;;
79139;SDS011;68546;59.142;37.948;2023-05-23T06:05:59;8.23;;;3.10;;
79139;SDS011;68546;59.142;37.948;2023-05-23T06:08:29;7.75;;;3.33;;
79139;SDS011;68546;59.142;37.948;2023-05-23T06:10:55;6.72;;;3.10;;
79139;SDS011;68546;59.142;37.948;2023-05-23T06:13:22;8.90;;;3.83;;
79139;SDS011;68546;59.142;37.948;2023-05-23T06:15:52;9.23;;;3.63;;
79139;SDS011;68546;59.142;37.948;2023-05-23T06:18:18;7.75;;;3.35;;
79139;SDS011;68546;59.142;37.948;2023-05-23T06:20:45;7.15;;;3.20;;
79139;SDS011;68546;59.142;37.948;2023-05-23T06:23:15;8.70;;;3.28;;
79139;SDS011;68546;59.142;37.948;2023-05-23T06:25:43;12.30;;;3.38;;
79139;SDS011;68546;59.142;37.948;2023-05-23T06:28:11;10.17;;;3.00;;
79139;SDS011;68546;59.142;37.948;2023-05-23T06:30:39;7.40;;;3.15;;
79139;SDS011;68546;59.142;37.948;2023-05-23T06:33:07;9.23;;;2.90;;
79139;SDS011;68546;59.142;37.948;2023-05-23T06:35:33;8.30;;;3.20;;
79139;SDS011;68546;59.142;37.948;2023-05-23T06:38:00;9.88;;;3.10;;
79139;SDS011;68546;59.142;37.948;2023-05-23T06:40:28;7.90;;;2.73;;
79139;SDS011;68546;59.142;37.948;2023-05-23T06:42:54;7.45;;;3.28;;
79139;SDS011;68546;59.142;37.948;2023-05-23T06:45:38;7.70;;;3.22;;
79139;SDS011;68546;59.142;37.948;2023-05-23T06:48:05;6.70;;;3.22;;
79139;SDS011;68546;59.142;37.948;2023-05-23T06:50:34;8.93;;;3.25;;
79139;SDS011;68546;59.142;37.948;2023-05-23T06:53:02;12.07;;;3.30;;
79139;SDS011;68546;59.142;37.948;2023-05-23T06:55:29;6.68;;;2.80;;
79139;SDS011;68546;59.142;37.948;2023-05-23T06:57:57;6.45;;;2.50;;
79139;SDS011;68546;59.142;37.948;2023-05-23T07:00:24;6.93;;;2.80;;
79139;SDS011;68546;59.142;37.948;2023-05-23T07:03:05;7.75;;;2.85;;
79139;SDS011;68546;59.142;37.948;2023-05-23T07:05:33;9.97;;;2.97;;
79139;SDS011;68546;59.142;37.948;2023-05-23T07:08:02;6.75;;;2.63;;
79139;SDS011;68546;59.142;37.948;2023-05-23T07:10:28;5.65;;;2.50;;
79139;SDS011;68546;59.142;37.948;2023-05-23T07:13:04;8.55;;;2.88;;
79139;SDS011;68546;59.142;37.948;2023-05-23T07:15:31;7.72;;;2.80;;
79139;SDS011;68546;59.142;37.948;2023-05-23T07:18:07;8.63;;;2.47;;
79139;SDS011;68546;59.142;37.948;2023-05-23T07:20:34;8.48;;;2.90;;
79139;SDS011;68546;59.142;37.948;2023-05-23T07:23:11;6.13;;;2.70;;
79139;SDS011;68546;59.142;37.948;2023-05-23T07:25:39;9.38;;;2.95;;
79139;SDS011;68546;59.142;37.948;2023-05-23T07:28:09;7.28;;;2.92;;
79139;SDS011;68546;59.142;37.948;2023-05-23T07:30:36;8.23;;;3.20;;
79139;SDS011;68546;59.142;37.948;2023-05-23T07:33:02;7.13;;;2.80;;
79139;SDS011;68546;59.142;37.948;2023-05-23T07:35:31;7.30;;;2.90;;
79139;SDS011;68546;59.142;37.948;2023-05-23T07:37:59;6.70;;;3.10;;
79139;SDS011;68546;59.142;37.948;2023-05-23T07:40:26;8.02;;;3.17;;
79139;SDS011;68546;59.142;37.948;2023-05-23T07:42:53;7.37;;;2.90;;
79139;SDS011;68546;59.142;37.948;2023-05-23T07:45:20;8.35;;;3.28;;
79139;SDS011;68546;59.142;37.948;2023-05-23T07:47:47;7.43;;;2.80;;
79139;SDS011;68546;59.142;37.948;2023-05-23T07:50:15;5.75;;;2.75;;
79139;SDS011;68546;59.142;37.948;2023-05-23T07:52:41;7.25;;;3.17;;
79139;SDS011;68546;59.142;37.948;2023-05-23T07:55:11;7.93;;;2.63;;
79139;SDS011;68546;59.142;37.948;2023-05-23T07:57:38;6.22;;;2.65;;
79139;SDS011;68546;59.142;37.948;2023-05-23T08:00:05;7.38;;;2.97;;
79139;SDS011;68546;59.142;37.948;2023-05-23T08:02:41;7.25;;;3.00;;
79139;SDS011;68546;59.142;37.948;2023-05-23T08:05:11;6.30;;;2.90;;
79139;SDS011;68546;59.142;37.948;2023-05-23T08:07:39;7.83;;;2.43;;
79139;SDS011;68546;59.142;37.948;2023-05-23T08:10:06;7.35;;;2.63;;
79139;SDS011;68546;59.142;37.948;2023-05-23T08:12:33;6.53;;;2.78;;
79139;SDS011;68546;59.142;37.948;2023-05-23T08:15:07;5.15;;;2.35;;
79139;SDS011;68546;59.142;37.948;2023-05-23T08:17:44;7.38;;;2.40;;
79139;SDS011;68546;59.142;37.948;2023-05-23T08:20:11;6.60;;;2.63;;
79139;SDS011;68546;59.142;37.948;2023-05-23T08:22:37;6.80;;;2.80;;
79139;SDS011;68546;59.142;37.948;2023-05-23T08:25:05;5.28;;;2.58;;
79139;SDS011;68546;59.142;37.948;2023-05-23T08:27:35;9.00;;;2.63;;
79139;SDS011;68546;59.142;37.948;2023-05-23T08:30:07;8.25;;;2.53;;
79139;SDS011;68546;59.142;37.948;2023-05-23T08:32:35;7.83;;;2.50;;
79139;SDS011;68546;59.142;37.948;2023-05-23T08:35:02;9.93;;;2.40;;
79139;SDS011;68546;59.142;37.948;2023-05-23T08:37:31;5.82;;;2.30;;
79139;SDS011;68546;59.142;37.948;2023-05-23T08:39:57;7.70;;;2.75;;
79139;SDS011;68546;59.142;37.948;2023-05-23T08:42:50;9.57;;;3.67;;
79139;SDS011;68546;59.142;37.948;2023-05-23T08:45:18;9.33;;;2.57;;
79139;SDS011;68546;59.142;37.948;2023-05-23T08:47:47;8.77;;;2.70;;
79139;SDS011;68546;59.142;37.948;2023-05-23T08:50:18;7.60;;;2.30;;
79139;SDS011;68546;59.142;37.948;2023-05-23T08:53:20;7.88;;;2.20;;
79139;SDS011;68546;59.142;37.948;2023-05-23T08:55:48;6.72;;;2.55;;
79139;SDS011;68546;59.142;37.948;2023-05-23T08:58:30;6.07;;;2.40;;
79139;SDS011;68546;59.142;37.948;2023-05-23T09:00:59;7.30;;;2.30;;
79139;SDS011;68546;59.142;37.948;2023-05-23T09:03:28;7.97;;;2.60;;
79139;SDS011;68546;59.142;37.948;2023-05-23T09:06:05;7.55;;;2.33;;
79139;SDS011;68546;59.142;37.948;2023-05-23T09:08:35;7.93;;;2.50;;
79139;SDS011;68546;59.142;37.948;2023-05-23T09:11:03;6.67;;;2.50;;
79139;SDS011;68546;59.142;37.948;2023-05-23T09:13:35;8.73;;;2.20;;
79139;SDS011;68546;59.142;37.948;2023-05-23T09:16:06;12.38;;;2.20;;
79139;SDS011;68546;59.142;37.948;2023-05-23T09:18:44;6.07;;;2.13;;
79139;SDS011;68546;59.142;37.948;2023-05-23T09:21:14;6.43;;;2.00;;
79139;SDS011;68546;59.142;37.948;2023-05-23T09:23:53;9.27;;;2.40;;
79139;SDS011;68546;59.142;37.948;2023-05-23T09:26:20;12.25;;;2.35;;
79139;SDS011;68546;59.142;37.948;2023-05-23T09:28:47;10.82;;;2.38;;
79139;SDS011;68546;59.142;37.948;2023-05-23T09:31:14;5.80;;;2.28;;
79139;SDS011;68546;59.142;37.948;2023-05-23T09:33:45;5.07;;;2.05;;
79139;SDS011;68546;59.142;37.948;2023-05-23T09:36:17;5.37;;;1.83;;
79139;SDS011;68546;59.142;37.948;2023-05-23T09:38:44;13.43;;;2.83;;
79139;SDS011;68546;59.142;37.948;2023-05-23T09:41:14;9.13;;;2.17;;
79139;SDS011;68546;59.142;37.948;2023-05-23T09:43:50;6.00;;;2.03;;
79139;SDS011;68546;59.142;37.948;2023-05-23T09:46:19;11.93;;;2.20;;
79139;SDS011;68546;59.142;37.948;2023-05-23T09:48:48;8.27;;;2.17;;
79139;SDS011;68546;59.142;37.948;2023-05-23T09:51:20;11.55;;;1.95;;
79139;SDS011;68546;59.142;37.948;2023-05-23T09:53:49;10.93;;;2.08;;
79139;SDS011;68546;59.142;37.948;2023-05-23T09:56:15;10.23;;;2.47;;
79139;SDS011;68546;59.142;37.948;2023-05-23T09:58:46;6.72;;;2.20;;
79139;SDS011;68546;59.142;37.948;2023-05-23T10:01:14;8.53;;;2.23;;
79139;SDS011;68546;59.142;37.948;2023-05-23T10:03:47;9.60;;;2.60;;
79139;SDS011;68546;59.142;37.948;2023-05-23T10:06:25;10.38;;;2.67;;
79139;SDS011;68546;59.142;37.948;2023-05-23T10:08:57;7.10;;;2.50;;
79139;SDS011;68546;59.142;37.948;2023-05-23T10:14:02;6.37;;;2.70;;
79139;SDS011;68546;59.142;37.948;2023-05-23T10:16:46;7.15;;;3.10;;
79139;SDS011;68546;59.142;37.948;2023-05-23T10:19:23;8.80;;;2.72;;
79139;SDS011;68546;59.142;37.948;2023-05-23T10:21:57;7.80;;;2.95;;
79139;SDS011;68546;59.142;37.948;2023-05-23T10:24:27;7.25;;;2.50;;
79139;SDS011;68546;59.142;37.948;2023-05-23T10:26:55;6.40;;;2.27;;
79139;SDS011;68546;59.142;37.948;2023-05-23T10:29:24;7.25;;;2.20;;
79139;SDS011;68546;59.142;37.948;2023-05-23T10:31:51;13.45;;;2.92;;
79139;SDS011;68546;59.142;37.948;2023-05-23T10:34:24;6.00;;;2.28;;
79139;SDS011;68546;59.142;37.948;2023-05-23T10:36:55;6.35;;;2.70;;
79139;SDS011;68546;59.142;37.948;2023-05-23T10:39:39;5.43;;;2.30;;
79139;SDS011;68546;59.142;37.948;2023-05-23T10:42:10;5.97;;;2.60;;
79139;SDS011;68546;59.142;37.948;2023-05-23T10:44:42;7.18;;;2.72;;
79139;SDS011;68546;59.142;37.948;2023-05-23T10:47:09;8.10;;;2.67;;
79139;SDS011;68546;59.142;37.948;2023-05-23T10:52:11;9.03;;;3.13;;
79139;SDS011;68546;59.142;37.948;2023-05-23T10:54:49;7.68;;;3.10;;
79139;SDS011;68546;59.142;37.948;2023-05-23T10:57:18;6.15;;;2.70;;
79139;SDS011;68546;59.142;37.948;2023-05-23T10:59:46;12.05;;;2.92;;
79139;SDS011;68546;59.142;37.948;2023-05-23T11:02:17;8.80;;;2.80;;
79139;SDS011;68546;59.142;37.948;2023-05-23T11:04:45;7.43;;;2.80;;
79139;SDS011;68546;59.142;37.948;2023-05-23T11:07:28;12.50;;;2.70;;
79139;SDS011;68546;59.142;37.948;2023-05-23T11:10:29;8.93;;;2.50;;
79139;SDS011;68546;59.142;37.948;2023-05-23T11:12:49;10.77;;;2.80;;
79139;SDS011;68546;59.142;37.948;2023-05-23T11:15:40;8.40;;;2.40;;
79139;SDS011;68546;59.142;37.948;2023-05-23T11:18:07;14.60;;;3.17;;
79139;SDS011;68546;59.142;37.948;2023-05-23T11:20:35;15.00;;;3.20;;
79139;SDS011;68546;59.142;37.948;2023-05-23T11:23:04;11.20;;;2.92;;
79139;SDS011;68546;59.142;37.948;2023-05-23T11:25:41;10.27;;;3.15;;
79139;SDS011;68546;59.142;37.948;2023-05-23T11:28:09;6.20;;;2.20;;
79139;SDS011;68546;59.142;37.948;2023-05-23T11:30:36;7.77;;;2.73;;
79139;SDS011;68546;59.142;37.948;2023-05-23T11:33:07;12.13;;;2.92;;
79139;SDS011;68546;59.142;37.948;2023-05-23T11:35:43;5.72;;;2.55;;
79139;SDS011;68546;59.142;37.948;2023-05-23T11:38:10;9.55;;;2.75;;
79139;SDS011;68546;59.142;37.948;2023-05-23T11:40:38;8.10;;;2.45;;
79139;SDS011;68546;59.142;37.948;2023-05-23T11:43:06;7.90;;;2.43;;
79139;SDS011;68546;59.142;37.948;2023-05-23T11:45:35;9.32;;;2.55;;
79139;SDS011;68546;59.142;37.948;2023-05-23T11:48:11;11.38;;;2.90;;
79139;SDS011;68546;59.142;37.948;2023-05-23T11:51:12;9.43;;;2.40;;
79139;SDS011;68546;59.142;37.948;2023-05-23T11:53:31;9.73;;;2.55;;
79139;SDS011;68546;59.142;37.948;2023-05-23T11:56:00;7.87;;;2.67;;
79139;SDS011;68546;59.142;37.948;2023-05-23T11:58:29;10.88;;;3.08;;
79139;SDS011;68546;59.142;37.948;2023-05-23T12:01:08;11.93;;;3.00;;
79139;SDS011;68546;59.142;37.948;2023-05-23T12:03:47;13.10;;;4.68;;
79139;SDS011;68546;59.142;37.948;2023-05-23T12:06:17;15.48;;;5.88;;
79139;SDS011;68546;59.142;37.948;2023-05-23T12:08:45;14.17;;;4.80;;
79139;SDS011;68546;59.142;37.948;2023-05-23T12:11:12;6.28;;;2.70;;
79139;SDS011;68546;59.142;37.948;2023-05-23T12:13:40;13.63;;;3.70;;
79139;SDS011;68546;59.142;37.948;2023-05-23T12:16:08;12.07;;;3.15;;
79139;SDS011;68546;59.142;37.948;2023-05-23T12:18:36;11.10;;;2.97;;
79139;SDS011;68546;59.142;37.948;2023-05-23T12:21:03;12.17;;;3.30;;
79139;SDS011;68546;59.142;37.948;2023-05-23T12:23:33;19.60;;;4.68;;
79139;SDS011;68546;59.142;37.948;2023-05-23T12:26:02;18.88;;;4.68;;
79139;SDS011;68546;59.142;37.948;2023-05-23T12:28:35;23.13;;;5.45;;
79139;SDS011;68546;59.142;37.948;2023-05-23T12:31:07;19.23;;;4.32;;
79139;SDS011;68546;59.142;37.948;2023-05-23T12:33:39;12.60;;;3.43;;
79139;SDS011;68546;59.142;37.948;2023-05-23T12:36:13;7.28;;;3.35;;
79139;SDS011;68546;59.142;37.948;2023-05-23T12:38:41;7.85;;;3.20;;
79139;SDS011;68546;59.142;37.948;2023-05-23T12:41:10;10.57;;;2.88;;
79139;SDS011;68546;59.142;37.948;2023-05-23T12:43:50;9.90;;;2.80;;
79139;SDS011;68546;59.142;37.948;2023-05-23T12:46:19;7.27;;;2.80;;
79139;SDS011;68546;59.142;37.948;2023-05-23T12:48:46;6.32;;;2.60;;
79139;SDS011;68546;59.142;37.948;2023-05-23T12:51:13;9.85;;;2.72;;
79139;SDS011;68546;59.142;37.948;2023-05-23T12:53:41;5.68;;;2.50;;
79139;SDS011;68546;59.142;37.948;2023-05-23T12:56:08;8.05;;;2.90;;
79139;SDS011;68546;59.142;37.948;2023-05-23T12:58:35;7.90;;;2.47;;
79139;SDS011;68546;59.142;37.948;2023-05-23T13:01:01;8.80;;;2.65;;
79139;SDS011;68546;59.142;37.948;2023-05-23T13:03:28;7.63;;;2.95;;
79139;SDS011;68546;59.142;37.948;2023-05-23T13:05:58;7.72;;;2.78;;
79139;SDS011;68546;59.142;37.948;2023-05-23T13:08:25;7.22;;;2.33;;
79139;SDS011;68546;59.142;37.948;2023-05-23T13:10:52;6.97;;;2.57;;
79139;SDS011;68546;59.142;37.948;2023-05-23T13:13:19;7.72;;;2.50;;
79139;SDS011;68546;59.142;37.948;2023-05-23T13:15:46;8.38;;;3.22;;
79139;SDS011;68546;59.142;37.948;2023-05-23T13:18:12;15.55;;;3.30;;
79139;SDS011;68546;59.142;37.948;2023-05-23T13:20:39;11.18;;;2.88;;
79139;SDS011;68546;59.142;37.948;2023-05-23T13:23:07;8.00;;;2.67;;
79139;SDS011;68546;59.142;37.948;2023-05-23T13:25:34;13.13;;;2.58;;
79139;SDS011;68546;59.142;37.948;2023-05-23T13:28:00;6.20;;;2.67;;
79139;SDS011;68546;59.142;37.948;2023-05-23T13:30:27;5.70;;;2.22;;
79139;SDS011;68546;59.142;37.948;2023-05-23T13:32:54;7.07;;;2.47;;
79139;SDS011;68546;59.142;37.948;2023-05-23T13:35:20;7.00;;;2.30;;
79139;SDS011;68546;59.142;37.948;2023-05-23T13:37:47;6.90;;;2.33;;
79139;SDS011;68546;59.142;37.948;2023-05-23T13:40:20;7.60;;;2.63;;
79139;SDS011;68546;59.142;37.948;2023-05-23T13:42:47;6.82;;;3.10;;
79139;SDS011;68546;59.142;37.948;2023-05-23T13:45:18;8.00;;;2.70;;
79139;SDS011;68546;59.142;37.948;2023-05-23T13:47:45;8.27;;;2.60;;
79139;SDS011;68546;59.142;37.948;2023-05-23T13:50:12;6.93;;;2.83;;
79139;SDS011;68546;59.142;37.948;2023-05-23T13:52:39;10.63;;;3.05;;
79139;SDS011;68546;59.142;37.948;2023-05-23T13:55:05;6.93;;;2.60;;
79139;SDS011;68546;59.142;37.948;2023-05-23T13:57:32;6.50;;;2.30;;
79139;SDS011;68546;59.142;37.948;2023-05-23T13:59:58;8.20;;;2.50;;
79139;SDS011;68546;59.142;37.948;2023-05-23T14:02:25;6.38;;;2.80;;
79139;SDS011;68546;59.142;37.948;2023-05-23T14:04:52;7.15;;;2.50;;
79139;SDS011;68546;59.142;37.948;2023-05-23T14:07:18;9.98;;;2.00;;
79139;SDS011;68546;59.142;37.948;2023-05-23T14:09:45;5.65;;;2.10;;
79139;SDS011;68546;59.142;37.948;2023-05-23T14:12:11;5.43;;;1.93;;
79139;SDS011;68546;59.142;37.948;2023-05-23T14:14:38;9.60;;;2.90;;
79139;SDS011;68546;59.142;37.948;2023-05-23T14:17:04;12.27;;;2.30;;
79139;SDS011;68546;59.142;37.948;2023-05-23T14:19:31;4.85;;;1.85;;
79139;SDS011;68546;59.142;37.948;2023-05-23T14:21:57;8.38;;;2.30;;
79139;SDS011;68546;59.142;37.948;2023-05-23T14:24:24;7.47;;;1.93;;
79139;SDS011;68546;59.142;37.948;2023-05-23T14:26:50;5.47;;;2.15;;
79139;SDS011;68546;59.142;37.948;2023-05-23T14:29:17;7.43;;;2.72;;
79139;SDS011;68546;59.142;37.948;2023-05-23T14:31:43;10.02;;;2.50;;
79139;SDS011;68546;59.142;37.948;2023-05-23T14:34:10;7.55;;;2.42;;
79139;SDS011;68546;59.142;37.948;2023-05-23T14:36:37;8.27;;;2.80;;
79139;SDS011;68546;59.142;37.948;2023-05-23T14:39:03;6.72;;;2.50;;
79139;SDS011;68546;59.142;37.948;2023-05-23T14:41:31;7.60;;;2.70;;
79139;SDS011;68546;59.142;37.948;2023-05-23T14:43:58;6.35;;;2.40;;
79139;SDS011;68546;59.142;37.948;2023-05-23T14:46:24;6.88;;;2.53;;